logo tempoitalia

Diretta Meteo Kozani, Grecialunedì 31 agosto ore 08:20

Mappa
Sereno 22 °C Sereno 24 Ore: T.min 18 T.max 35
Ponente Nord Km/h 1.8 Punto di rugiada: 16 °C Umidità: 68% Visibilità: 0 Km
Il sole sorge alle: 06:59 Il sole tramonta alle: 20:07
31 Agosto 2026 08:20 tempo osservato: Sereno Sereno 22 68 1019 vento: Nord N 1.8
31 Agosto 2026 07:50 tempo osservato: Sereno Sereno 19 77 1019 vento: Nord N 1.8
31 Agosto 2026 07:20 tempo osservato: Sereno Sereno 18 82 1019 vento: Nord N 3.7
31 Agosto 2026 06:50 tempo osservato: Sereno Sereno 19 77 1019 vento: Nord N 5.5
31 Agosto 2026 06:20 tempo osservato: Sereno Sereno 18 82 1019 vento: Nord N 7.4
31 Agosto 2026 05:50 tempo osservato: Sereno Sereno 19 77 1019 vento: Nord N 7.4
31 Agosto 2026 05:20 tempo osservato: Sereno Sereno 19 77 1019 vento: Nord N 7.4
31 Agosto 2026 04:50 tempo osservato: Sereno Sereno 19 77 1019 vento: Nord N 5.5
31 Agosto 2026 04:20 tempo osservato: Sereno Sereno 19 77 1019 vento: Nord N 3.7
31 Agosto 2026 03:50 tempo osservato: Sereno Sereno 18 82 1019 vento: Nord N 3.7
31 Agosto 2026 03:20 tempo osservato: Sereno Sereno 19 72 1019 vento: Nord N 1.8
31 Agosto 2026 02:50 tempo osservato: Sereno Sereno 20 68 1019 vento: Nord N 1.8
31 Agosto 2026 02:20 tempo osservato: Sereno Sereno 21 64 1019 vento: Nord N 3.7
31 Agosto 2026 01:50 tempo osservato: Sereno Sereno 21 64 1019 vento: Nord N 7.4
31 Agosto 2026 01:20 tempo osservato: Sereno Sereno 21 64 1019 vento: Nord N 5.5
31 Agosto 2026 00:50 tempo osservato: Sereno Sereno 21 64 1020 vento: Nord N 5.5
31 Agosto 2026 00:20 tempo osservato: Sereno Sereno 21 64 1019 vento: Nord N 3.7
30 Agosto 2026 23:50 tempo osservato: Sereno Sereno 22 60 1019 vento: Nord N 5.5
30 Agosto 2026 23:20 tempo osservato: Sereno Sereno 22 56 1019 vento: Nord N 1.8
30 Agosto 2026 22:50 tempo osservato: Sereno Sereno 23 53 1019 vento: Nord N 1.8
30 Agosto 2026 22:20 tempo osservato: Sereno Sereno 25 47 1019 vento: Nord N 3.7
30 Agosto 2026 21:50 tempo osservato: Sereno Sereno 25 47 1019 vento: Nord S 7.4
30 Agosto 2026 21:20 tempo osservato: Sereno Sereno 26 44 1019 vento: Nord S/SO 7.4
30 Agosto 2026 20:50 tempo osservato: Sereno Sereno 27 42 1018 vento: Nord SE 11.1
30 Agosto 2026 20:20 tempo osservato: Sereno Sereno 28 39 1018 vento: Nord SE 9.3
30 Agosto 2026 19:50 tempo osservato: Sereno Sereno 28 34 1018 vento: Nord E/SE 14.8
30 Agosto 2026 19:20 tempo osservato: Sereno Sereno 29 30 1017 vento: Nord E/SE 14.8
30 Agosto 2026 18:50 tempo osservato: Nuvoloso Nuvoloso 30 28 1017 vento: Nord E/SE 9.3
30 Agosto 2026 17:50 tempo osservato: Poco Nuvoloso Poco Nuvoloso 32 25 1017 vento: Nord E/SE 14.8
30 Agosto 2026 16:50 tempo osservato: Poco Nuvoloso Poco Nuvoloso 34 20 1017 vento: Nord E/SE 16.7
30 Agosto 2026 15:50 tempo osservato: Poco Nuvoloso Poco Nuvoloso 33 22 1017 vento: Nord E/SE 11.1
30 Agosto 2026 14:50 tempo osservato: Poco Nuvoloso Poco Nuvoloso 35 12 1018 vento: Nord E/SE 9.3
30 Agosto 2026 14:20 tempo osservato: Sereno Sereno 33 27 1018 vento: Nord E/NE 11.1
30 Agosto 2026 13:50 tempo osservato: Sereno Sereno 32 31 1018 vento: Nord E/SE 7.4
30 Agosto 2026 13:20 tempo osservato: Sereno Sereno 31 33 1019 vento: Nord S 7.4
30 Agosto 2026 12:50 tempo osservato: Sereno Sereno 31 35 1019 vento: Nord S/SE 9.3
30 Agosto 2026 12:20 tempo osservato: Sereno Sereno 30 37 1019 vento: Nord E/SE 9.3
30 Agosto 2026 11:50 tempo osservato: Sereno Sereno 29 42 1020 vento: Nord E 9.3
30 Agosto 2026 11:20 tempo osservato: Sereno Sereno 28 48 1020 vento: Nord N 5.5
30 Agosto 2026 10:50 tempo osservato: Sereno Sereno 26 57 1020 vento: Nord N 3.7
30 Agosto 2026 10:20 tempo osservato: Sereno Sereno 25 61 1020 vento: Nord N 3.7
30 Agosto 2026 09:50 tempo osservato: Sereno Sereno 24 69 1019 vento: Nord N 0
30 Agosto 2026 08:50 tempo osservato: Sereno Sereno 23 73 1019 vento: Nord N 0